Portada
METAR-TAF:

METAR-TAF

Aeroports :

Baia Mare, Romania

latitud: 47-40N, longitud: 023-35E, altitud: 218 m

Observació

L'informe es va fer fa 17 minuts, a les 02:30 UTC
Vent calma
Temperatura 9°C
Humitat 87%
Pressió 1021 hPa
Visibilitat 10 km o més

METAR: LRBM 280230Z AUTO 00000KT 9999 FEW090/// BKN100/// BKN120/// 09/07 Q1021

Hora: 05:47 (02:47 UTC)

Pronòstic

L'informe es va fer fa 47 minuts, a les 02:00 UTC
Pronòstic vàlid del 28 a les 03 UTC al 28 a les 12 UTC
Vent 7 kt del Nord-Est
Visibilitat 10 km o més
Núvols disperses a una alçada de 4000 ft
Temporalment
l' 28 a les 09 UTC al 28 a les 12 UTC
Visibilitat: 5000 m
Núvols disperses a una alçada de 3500 ft, Cumulonimbus.
xàfecs de pluja

TAF: LRBM 280200Z 2803/2812 05007KT 9999 SCT040 TEMPO 2809/2812 5000 -SHRA SCT035CB

Observacions i pronòstics meteorològics de més de 4000 aeroports (METAR i TAF).

Les estacions disponibles són els punts grocs i vermells al mapa.

Posi el ratolí al punt desitjat per veure el nom de l'estació.

Feu clic per veure les observacions i els pronòstics meteorològics.

Per canviar el mapa: feu clic els botons verds amb una creu de color negre per apropar; al botó verd amb un guió per allunyar la imatge; o en les fletxes verdes per a mapes adjacents.


METAR-TAF: